createdAt,value
2022-10-17T00:01:31.170Z,95.90
2022-10-17T00:03:58.853Z,95.70
2022-10-17T00:06:35.069Z,96.10
2022-10-17T00:09:12.071Z,95.40
2022-10-17T00:11:40.246Z,96.00
2022-10-17T00:14:09.676Z,95.60
2022-10-17T00:16:57.493Z,95.20
2022-10-17T00:19:24.909Z,94.50
2022-10-17T00:21:54.932Z,94.90
2022-10-17T00:24:25.218Z,94.90
2022-10-17T00:26:56.218Z,94.50
2022-10-17T00:29:27.571Z,94.30
2022-10-17T00:31:56.438Z,94.10
2022-10-17T00:34:31.012Z,93.90
2022-10-17T00:36:58.743Z,93.90
2022-10-17T00:39:27.328Z,93.70
2022-10-17T00:41:57.033Z,93.50
2022-10-17T00:44:31.073Z,93.40
2022-10-17T00:47:04.761Z,93.50
2022-10-17T00:49:37.370Z,93.10
2022-10-17T00:52:15.697Z,92.80
2022-10-17T00:54:52.674Z,92.70
2022-10-17T00:57:20.184Z,92.40
2022-10-17T00:59:51.884Z,92.20
2022-10-17T01:02:21.390Z,92.10
2022-10-17T01:04:52.141Z,91.80
2022-10-17T01:07:19.425Z,91.70
2022-10-17T01:09:48.498Z,91.30
2022-10-17T01:12:30.166Z,91.50
2022-10-17T01:15:19.468Z,91.20
2022-10-17T01:18:12.054Z,91.30
2022-10-17T01:21:17.394Z,91.20
2022-10-17T01:24:24.927Z,91.30
2022-10-17T01:27:36.422Z,91.40
2022-10-17T01:30:16.268Z,91.60
2022-10-17T01:33:06.758Z,91.90
2022-10-17T01:35:39.878Z,91.90
2022-10-17T01:38:33.066Z,92.00
2022-10-17T01:41:23.615Z,92.10
2022-10-17T01:43:59.755Z,92.10
2022-10-17T01:46:34.275Z,92.20
2022-10-17T01:49:05.586Z,92.30
2022-10-17T01:51:54.482Z,92.40
2022-10-17T01:54:31.246Z,92.30
2022-10-17T01:57:02.981Z,92.50
2022-10-17T01:59:38.610Z,92.60
2022-10-17T02:02:08.161Z,92.60
2022-10-17T02:04:56.012Z,93.10
2022-10-17T02:07:26.846Z,93.00
2022-10-17T02:09:55.777Z,93.10
2022-10-17T02:12:49.420Z,93.00
2022-10-17T02:15:35.582Z,93.00
2022-10-17T02:18:27.008Z,93.00
2022-10-17T02:21:17.723Z,93.00
2022-10-17T02:24:11.247Z,93.10
2022-10-17T02:27:11.127Z,93.30
2022-10-17T02:29:49.396Z,93.50
2022-10-17T02:32:33.635Z,93.40
2022-10-17T02:35:08.139Z,93.60
2022-10-17T02:37:39.850Z,93.80
2022-10-17T02:40:15.225Z,93.90
2022-10-17T02:42:45.212Z,94.30
2022-10-17T02:45:25.042Z,94.50
2022-10-17T02:48:04.154Z,94.80
2022-10-17T02:50:41.453Z,94.80
2022-10-17T02:53:32.771Z,94.90
2022-10-17T02:56:18.848Z,94.90
2022-10-17T02:58:58.864Z,95.40
2022-10-17T03:01:26.467Z,95.50
2022-10-17T03:04:11.952Z,95.40
2022-10-17T03:06:41.346Z,95.30
2022-10-17T03:09:09.086Z,95.30
2022-10-17T03:11:39.706Z,95.50
2022-10-17T03:14:13.148Z,95.60
2022-10-17T03:16:43.380Z,95.70
2022-10-17T03:19:11.121Z,95.50
2022-10-17T03:21:44.491Z,95.60
2022-10-17T03:24:12.222Z,95.60
2022-10-17T03:26:41.783Z,95.60
2022-10-17T03:29:09.206Z,95.70
2022-10-17T03:31:36.684Z,95.70
2022-10-17T03:34:04.124Z,96.20
2022-10-17T03:36:34.056Z,96.30
2022-10-17T03:39:01.198Z,96.10
2022-10-17T03:41:28.472Z,96.10
2022-10-17T03:43:55.507Z,96.30
2022-10-17T03:46:23.474Z,96.30
2022-10-17T03:48:51.377Z,96.50
2022-10-17T03:51:18.762Z,96.50
2022-10-17T03:53:46.034Z,96.40
2022-10-17T03:56:27.404Z,96.30
2022-10-17T03:58:58.164Z,96.20
2022-10-17T04:01:36.737Z,96.00
2022-10-17T04:04:04.262Z,96.10
2022-10-17T04:06:31.577Z,95.80
2022-10-17T04:08:59.605Z,95.90
2022-10-17T04:11:28.194Z,96.10
2022-10-17T04:14:02.141Z,96.10
2022-10-17T04:16:31.226Z,96.10
2022-10-17T04:19:01.937Z,96.00
2022-10-17T04:21:33.654Z,96.10
2022-10-17T04:24:03.670Z,96.10
2022-10-17T04:26:34.531Z,96.10
2022-10-17T04:29:09.280Z,95.90
2022-10-17T04:31:39.765Z,96.00
2022-10-17T04:34:07.141Z,95.90
2022-10-17T04:36:36.052Z,96.00
2022-10-17T04:39:06.484Z,96.00
2022-10-17T04:41:37.523Z,95.90
2022-10-17T04:44:08.763Z,96.10
2022-10-17T04:46:38.486Z,95.90
2022-10-17T04:49:09.663Z,95.80
2022-10-17T04:51:39.962Z,95.80
2022-10-17T04:54:09.309Z,95.80
2022-10-17T04:56:37.356Z,96.10
2022-10-17T04:59:05.517Z,96.00
2022-10-17T05:01:33.179Z,96.10
2022-10-17T05:04:06.828Z,96.00
2022-10-17T05:06:37.814Z,96.10
2022-10-17T05:09:09.877Z,96.00
2022-10-17T05:11:37.580Z,96.10
2022-10-17T05:14:13.752Z,96.10
2022-10-17T05:16:41.235Z,95.90
2022-10-17T05:19:29.186Z,95.80
2022-10-17T05:21:59.272Z,95.70
2022-10-17T05:24:31.014Z,95.70
2022-10-17T05:26:58.679Z,95.40
2022-10-17T05:29:26.134Z,95.20
2022-10-17T05:31:56.300Z,95.20
2022-10-17T05:34:29.242Z,95.00
2022-10-17T05:37:05.054Z,94.70
2022-10-17T05:40:21.541Z,94.80
2022-10-17T05:42:51.019Z,94.40
2022-10-17T05:45:44.554Z,94.10
2022-10-17T05:51:12.582Z,93.30
2022-10-17T05:53:52.966Z,93.20
2022-10-17T05:56:50.774Z,93.30
2022-10-17T05:59:44.090Z,93.00
2022-10-17T06:02:41.764Z,92.60
2022-10-17T06:05:50.519Z,88.80
2022-10-17T06:08:21.597Z,87.00
2022-10-17T06:11:13.453Z,83.30
2022-10-17T06:13:50.304Z,77.60
2022-10-17T06:16:27.031Z,76.00
2022-10-17T06:19:17.208Z,73.60
2022-10-17T06:22:08.329Z,68.50
2022-10-17T06:24:41.098Z,66.20
2022-10-17T06:27:14.759Z,64.20
2022-10-17T06:29:44.128Z,62.10
2022-10-17T06:32:15.876Z,59.30
2022-10-17T06:34:46.136Z,58.20
2022-10-17T06:37:15.394Z,57.30
2022-10-17T06:39:51.263Z,56.30
2022-10-17T06:42:22.187Z,55.90
2022-10-17T06:45:13.868Z,55.50
2022-10-17T06:47:50.007Z,55.70
2022-10-17T06:50:41.591Z,55.90
2022-10-17T06:53:09.563Z,56.40
2022-10-17T06:55:47.768Z,57.30
2022-10-17T06:58:24.490Z,58.10
2022-10-17T07:01:00.649Z,58.30
2022-10-17T07:03:43.679Z,58.70
2022-10-17T07:10:10.592Z,59.20
2022-10-17T07:12:40.512Z,59.90
2022-10-17T07:15:14.371Z,58.20
2022-10-17T07:18:04.650Z,56.30
2022-10-17T07:20:36.613Z,55.60
2022-10-17T07:23:14.243Z,55.10
2022-10-17T07:25:43.980Z,54.80
2022-10-17T07:28:53.943Z,54.10
2022-10-17T07:35:06.508Z,53.90
2022-10-17T07:37:55.469Z,54.70
2022-10-17T07:40:27.054Z,55.30
2022-10-17T07:43:05.226Z,55.70
2022-10-17T07:45:39.187Z,56.20
2022-10-17T07:48:21.758Z,57.10
2022-10-17T07:50:50.953Z,58.00
2022-10-17T07:53:24.335Z,59.10
2022-10-17T07:55:57.391Z,59.40
2022-10-17T07:58:53.672Z,59.70
2022-10-17T08:01:34.480Z,59.90
2022-10-17T08:04:33.659Z,60.20
2022-10-17T08:07:24.131Z,60.80
2022-10-17T08:10:02.132Z,61.20
2022-10-17T08:13:02.868Z,61.70
2022-10-17T08:15:37.627Z,62.00
2022-10-17T08:18:05.600Z,62.20
2022-10-17T08:24:30.308Z,62.10
2022-10-17T08:27:01.146Z,61.90
2022-10-17T08:29:43.294Z,61.50
2022-10-17T08:32:19.734Z,60.80
2022-10-17T08:35:00.918Z,60.70
2022-10-17T08:37:43.016Z,59.60
2022-10-17T08:40:41.945Z,59.30
2022-10-17T08:43:37.317Z,59.00
2022-10-17T08:46:11.516Z,59.80
2022-10-17T08:48:51.695Z,59.40
2022-10-17T08:51:47.005Z,58.50
2022-10-17T08:54:27.565Z,58.00
2022-10-17T08:56:57.771Z,57.80
2022-10-17T08:59:35.941Z,55.90
2022-10-17T09:05:51.959Z,52.00
2022-10-17T09:09:05.613Z,51.30
2022-10-17T09:12:15.394Z,49.60
2022-10-17T09:14:51.853Z,49.70
2022-10-17T09:18:00.232Z,48.70
2022-10-17T09:21:12.051Z,48.30
2022-10-17T09:24:08.966Z,47.40
2022-10-17T09:27:07.661Z,46.50
2022-10-17T09:29:51.852Z,46.30
2022-10-17T09:32:27.527Z,44.20
2022-10-17T09:35:30.615Z,44.00
2022-10-17T09:38:03.722Z,44.40
2022-10-17T09:40:41.537Z,44.50
2022-10-17T09:43:35.403Z,43.70
2022-10-17T09:46:36.423Z,43.70
2022-10-17T09:49:14.889Z,43.90
2022-10-17T09:51:56.474Z,44.50
2022-10-17T09:54:49.500Z,44.70
2022-10-17T09:57:27.325Z,44.40
2022-10-17T10:00:20.984Z,45.10
2022-10-17T10:02:48.660Z,44.50
2022-10-17T10:05:40.514Z,44.70
2022-10-17T10:09:08.258Z,44.30
2022-10-17T10:12:06.024Z,45.30
2022-10-17T10:14:47.377Z,46.50
2022-10-17T10:17:55.291Z,46.40
2022-10-17T10:20:42.059Z,46.70
2022-10-17T10:23:22.149Z,47.20
2022-10-17T10:26:35.877Z,47.60
2022-10-17T10:29:31.278Z,48.20
2022-10-17T10:32:19.534Z,48.50
2022-10-17T10:35:13.467Z,48.60
2022-10-17T10:38:02.641Z,49.50
2022-10-17T10:41:03.121Z,50.10
2022-10-17T10:43:49.205Z,51.50
2022-10-17T10:49:38.236Z,53.60
2022-10-17T10:52:24.267Z,54.20
2022-10-17T10:55:40.247Z,54.90
2022-10-17T10:58:33.730Z,55.40
2022-10-17T11:01:06.344Z,55.50
2022-10-17T11:04:11.887Z,55.80
2022-10-17T11:06:43.986Z,56.10
2022-10-17T11:09:38.232Z,56.70
2022-10-17T11:12:20.420Z,55.60
2022-10-17T11:14:57.246Z,55.80
2022-10-17T11:17:43.380Z,56.40
2022-10-17T11:20:20.945Z,57.10
2022-10-17T11:22:53.068Z,57.40
2022-10-17T11:25:55.248Z,57.60
2022-10-17T11:28:27.921Z,57.50
2022-10-17T11:31:09.195Z,58.30
2022-10-17T11:34:28.529Z,58.10
2022-10-17T11:37:15.495Z,57.70
2022-10-17T11:40:09.045Z,58.20
2022-10-17T11:42:57.373Z,58.30
2022-10-17T11:45:43.377Z,58.10
2022-10-17T11:48:42.205Z,58.30
2022-10-17T11:54:49.350Z,58.20
2022-10-17T11:57:59.940Z,57.60
2022-10-17T12:01:35.286Z,58.20
2022-10-17T12:04:43.759Z,58.10
2022-10-17T12:07:36.914Z,58.20
2022-10-17T12:10:55.185Z,57.70
2022-10-17T12:13:35.870Z,57.40
2022-10-17T12:16:21.298Z,57.00
2022-10-17T12:19:14.675Z,57.00
2022-10-17T12:22:06.808Z,57.00
2022-10-17T12:25:58.246Z,57.00
2022-10-17T12:31:56.389Z,56.80
2022-10-17T12:34:33.203Z,56.70
2022-10-17T12:37:05.676Z,56.70
2022-10-17T12:39:39.030Z,56.60
2022-10-17T12:42:32.983Z,56.90
2022-10-17T12:45:03.141Z,56.20
2022-10-17T12:47:52.238Z,56.30
2022-10-17T12:51:30.826Z,55.80
2022-10-17T12:54:12.265Z,55.30
2022-10-17T12:56:52.885Z,55.50
2022-10-17T12:59:38.189Z,55.30
2022-10-17T13:02:19.396Z,55.80
2022-10-17T13:05:06.651Z,56.20
2022-10-17T13:07:41.273Z,56.40
2022-10-17T13:10:22.721Z,56.30
2022-10-17T13:13:00.859Z,56.20
2022-10-17T13:15:29.022Z,55.50
2022-10-17T13:18:01.402Z,55.20
2022-10-17T13:20:31.862Z,55.40
2022-10-17T13:23:00.119Z,55.30
2022-10-17T13:25:33.863Z,55.10
2022-10-17T13:28:10.151Z,55.40
2022-10-17T13:30:44.132Z,55.50
2022-10-17T13:33:42.393Z,55.00
2022-10-17T13:36:19.944Z,54.80
2022-10-17T13:38:53.351Z,55.20
2022-10-17T13:41:35.902Z,55.20
2022-10-17T13:44:21.358Z,54.90
2022-10-17T13:47:06.689Z,54.90
2022-10-17T13:49:44.745Z,55.40
2022-10-17T13:52:22.082Z,55.10
2022-10-17T13:55:26.510Z,55.30
2022-10-17T13:57:57.773Z,55.60
2022-10-17T14:00:25.464Z,55.80
2022-10-17T14:02:52.842Z,55.80
2022-10-17T14:05:24.222Z,56.00
2022-10-17T14:08:11.887Z,56.60
2022-10-17T14:10:43.459Z,56.80
2022-10-17T14:13:34.437Z,57.50
2022-10-17T14:16:06.470Z,57.70
2022-10-17T14:18:39.832Z,58.20
2022-10-17T14:21:34.382Z,58.40
2022-10-17T14:24:36.407Z,58.90
2022-10-17T14:27:34.931Z,59.50
2022-10-17T14:30:08.785Z,60.00
2022-10-17T14:32:43.880Z,60.40
2022-10-17T14:35:41.112Z,60.80
2022-10-17T14:38:15.753Z,61.20
2022-10-17T14:41:41.307Z,62.10
2022-10-17T14:44:04.279Z,62.50
2022-10-17T14:46:41.590Z,62.80
2022-10-17T14:49:36.657Z,63.00
2022-10-17T14:52:20.076Z,63.30
2022-10-17T14:54:49.853Z,63.50
2022-10-17T14:57:28.343Z,63.80
2022-10-17T14:59:57.374Z,63.90
2022-10-17T15:02:30.966Z,64.10
2022-10-17T15:05:01.268Z,64.30
2022-10-17T15:07:31.560Z,64.70
2022-10-17T15:12:58.890Z,65.00
2022-10-17T15:15:34.997Z,65.10
2022-10-17T15:18:04.893Z,65.40
2022-10-17T15:20:33.639Z,65.70
2022-10-17T15:23:02.893Z,66.00
2022-10-17T15:25:37.164Z,66.20
2022-10-17T15:28:10.936Z,66.40
2022-10-17T15:30:45.983Z,66.80
2022-10-17T15:34:10.382Z,66.70
2022-10-17T15:36:34.922Z,66.90
2022-10-17T15:39:05.992Z,67.50
2022-10-17T15:41:41.546Z,67.50
2022-10-17T15:44:22.137Z,67.80
2022-10-17T15:46:59.519Z,68.20
2022-10-17T15:49:32.782Z,68.40
2022-10-17T15:52:09.706Z,68.30
2022-10-17T15:54:43.158Z,68.70
2022-10-17T16:00:28.036Z,69.10
2022-10-17T16:03:04.664Z,68.90
2022-10-17T16:05:35.836Z,69.20
2022-10-17T16:08:24.758Z,69.10
2022-10-17T16:11:08.140Z,69.20
2022-10-17T16:13:53.983Z,69.40
2022-10-17T16:16:32.241Z,69.50
2022-10-17T16:19:08.151Z,69.70
2022-10-17T16:21:43.802Z,70.10
2022-10-17T16:24:17.273Z,70.30
2022-10-17T16:26:50.040Z,70.70
2022-10-17T16:29:20.020Z,70.90
2022-10-17T16:31:52.215Z,70.90
2022-10-17T16:34:22.815Z,71.20
2022-10-17T16:37:04.744Z,71.20
2022-10-17T16:39:41.403Z,71.30
2022-10-17T16:42:12.021Z,71.30
2022-10-17T16:45:04.365Z,71.50
2022-10-17T16:47:40.087Z,71.60
2022-10-17T16:50:10.808Z,72.10
2022-10-17T16:52:38.494Z,71.90
2022-10-17T16:55:06.943Z,72.20
2022-10-17T16:57:34.789Z,72.40
2022-10-17T17:00:12.849Z,72.50
2022-10-17T17:02:44.527Z,72.60
2022-10-17T17:05:24.697Z,72.60
2022-10-17T17:08:10.387Z,72.80
2022-10-17T17:10:46.318Z,72.80
2022-10-17T17:13:13.561Z,72.90
2022-10-17T17:15:41.982Z,72.80
2022-10-17T17:18:16.687Z,73.00
2022-10-17T17:20:47.793Z,73.00
2022-10-17T17:23:15.986Z,73.10
2022-10-17T17:25:49.805Z,73.20
2022-10-17T17:28:23.330Z,73.20
2022-10-17T17:30:52.106Z,73.30
2022-10-17T17:33:21.450Z,73.30
2022-10-17T17:35:54.068Z,73.40
2022-10-17T17:38:21.307Z,73.40
2022-10-17T17:40:50.958Z,73.40
2022-10-17T17:43:20.870Z,73.50
2022-10-17T17:45:48.736Z,73.50
2022-10-17T17:48:16.721Z,73.50
2022-10-17T17:50:46.961Z,73.50
2022-10-17T17:53:18.860Z,73.50
2022-10-17T17:55:46.185Z,73.60
2022-10-17T17:58:21.213Z,73.60
2022-10-17T18:00:51.640Z,73.50
2022-10-17T18:03:19.576Z,73.50
2022-10-17T18:05:49.497Z,73.60
2022-10-17T18:08:17.526Z,73.70
2022-10-17T18:10:56.960Z,73.60
2022-10-17T18:13:25.024Z,73.70
2022-10-17T18:15:56.074Z,73.70
2022-10-17T18:18:30.102Z,73.80
2022-10-17T18:21:01.186Z,73.80
2022-10-17T18:23:29.250Z,74.00
2022-10-17T18:26:00.925Z,74.00
2022-10-17T18:28:28.256Z,74.00
2022-10-17T18:30:58.149Z,73.90
2022-10-17T18:33:30.429Z,73.90
2022-10-17T18:35:58.412Z,74.10
2022-10-17T18:38:28.267Z,74.20
2022-10-17T18:41:05.942Z,74.40
2022-10-17T18:43:34.899Z,74.50
2022-10-17T18:46:05.347Z,74.60
2022-10-17T18:48:35.785Z,74.80
2022-10-17T18:51:09.841Z,74.90
2022-10-17T18:53:41.419Z,75.20
2022-10-17T18:56:12.504Z,75.20
2022-10-17T18:58:42.432Z,75.40
2022-10-17T19:01:15.720Z,75.40
2022-10-17T19:03:47.481Z,75.60
2022-10-17T19:06:17.645Z,75.70
2022-10-17T19:08:53.785Z,75.80
2022-10-17T19:11:27.408Z,75.90
2022-10-17T19:13:59.456Z,75.70
2022-10-17T19:16:41.691Z,75.90
2022-10-17T19:19:17.504Z,76.20
2022-10-17T19:21:52.429Z,76.50
2022-10-17T19:24:25.348Z,76.40
2022-10-17T19:26:58.481Z,76.70
2022-10-17T19:29:33.138Z,76.90
2022-10-17T19:32:01.450Z,77.00
2022-10-17T19:34:31.909Z,77.20
2022-10-17T19:36:59.834Z,77.20
2022-10-17T19:39:34.562Z,77.50
2022-10-17T19:42:08.547Z,77.40
2022-10-17T19:44:35.956Z,77.50
2022-10-17T19:47:02.985Z,77.60
2022-10-17T19:49:30.549Z,77.70
2022-10-17T19:52:04.535Z,77.70
2022-10-17T19:54:40.396Z,77.70
2022-10-17T19:57:13.114Z,77.60
2022-10-17T19:59:45.744Z,77.60
2022-10-17T20:02:14.098Z,77.60
2022-10-17T20:04:54.466Z,77.70
2022-10-17T20:07:31.965Z,77.70
2022-10-17T20:09:59.769Z,77.80
2022-10-17T20:12:26.995Z,78.00
2022-10-17T20:14:54.544Z,77.90
2022-10-17T20:20:07.793Z,78.10
2022-10-17T20:22:36.356Z,78.20
2022-10-17T20:25:06.492Z,78.60
2022-10-17T20:27:33.499Z,78.80
2022-10-17T20:30:02.328Z,78.90
2022-10-17T20:32:34.026Z,79.20
2022-10-17T20:35:06.938Z,79.60
2022-10-17T20:37:42.673Z,79.80
2022-10-17T20:40:33.492Z,80.20
2022-10-17T20:43:00.504Z,80.40
2022-10-17T20:45:43.898Z,80.80
2022-10-17T20:48:20.569Z,80.90
2022-10-17T20:50:48.225Z,81.30
2022-10-17T20:53:38.486Z,81.50
2022-10-17T20:56:09.681Z,81.60
2022-10-17T20:58:37.147Z,82.00
2022-10-17T21:01:13.073Z,82.10
2022-10-17T21:03:44.048Z,82.20
2022-10-17T21:06:14.174Z,82.40
2022-10-17T21:08:43.854Z,82.50
2022-10-17T21:11:17.553Z,82.90
2022-10-17T21:13:45.961Z,83.00
2022-10-17T21:16:18.976Z,83.30
2022-10-17T21:18:49.594Z,83.70
2022-10-17T21:21:24.602Z,83.80
2022-10-17T21:23:52.991Z,84.00
2022-10-17T21:26:34.428Z,84.20
2022-10-17T21:29:05.677Z,84.50
2022-10-17T21:31:37.761Z,84.40
2022-10-17T21:34:14.430Z,84.80
2022-10-17T21:36:54.176Z,84.90
2022-10-17T21:39:24.377Z,85.40
2022-10-17T21:41:52.357Z,85.70
2022-10-17T21:44:29.204Z,86.20
2022-10-17T21:46:56.642Z,86.60
2022-10-17T21:49:25.425Z,87.70
2022-10-17T21:51:53.714Z,88.30
2022-10-17T21:54:29.950Z,88.70
2022-10-17T21:56:59.157Z,89.30
2022-10-17T21:59:27.288Z,89.90
2022-10-17T22:01:54.748Z,90.40
2022-10-17T22:04:24.670Z,90.80
2022-10-17T22:06:52.472Z,91.10
2022-10-17T22:09:27.263Z,91.70
2022-10-17T22:11:59.683Z,92.00
2022-10-17T22:14:28.740Z,92.40
2022-10-17T22:17:05.976Z,92.80
2022-10-17T22:19:33.405Z,93.10
2022-10-17T22:22:11.589Z,93.40
2022-10-17T22:27:33.666Z,93.70
2022-10-17T22:30:01.200Z,94.00
2022-10-17T22:32:31.965Z,94.60
2022-10-17T22:34:59.855Z,94.90
2022-10-17T22:37:33.270Z,95.10
2022-10-17T22:40:00.780Z,95.30
2022-10-17T22:42:34.784Z,95.10
2022-10-17T22:45:03.064Z,95.30
2022-10-17T22:47:31.665Z,95.60
2022-10-17T22:49:58.998Z,95.70
2022-10-17T22:52:27.054Z,95.70
2022-10-17T22:54:57.875Z,95.90
2022-10-17T22:57:30.973Z,96.20
2022-10-17T22:59:58.784Z,96.10
2022-10-17T23:02:26.109Z,96.40
2022-10-17T23:04:56.169Z,96.50
2022-10-17T23:07:27.381Z,96.70
2022-10-17T23:09:56.196Z,96.50
2022-10-17T23:12:26.539Z,96.40
2022-10-17T23:14:54.598Z,96.50
2022-10-17T23:17:24.420Z,96.70
2022-10-17T23:19:55.604Z,96.70
2022-10-17T23:22:27.819Z,96.70
2022-10-17T23:24:58.682Z,96.90
2022-10-17T23:29:57.388Z,97.10
2022-10-17T23:32:30.575Z,97.10
2022-10-17T23:34:58.519Z,97.10
2022-10-17T23:37:30.250Z,97.40
2022-10-17T23:40:05.479Z,97.30
2022-10-17T23:42:35.399Z,97.50
2022-10-17T23:45:03.297Z,97.70
2022-10-17T23:47:31.500Z,97.40
2022-10-17T23:50:02.219Z,97.70
2022-10-17T23:52:33.349Z,97.90
2022-10-17T23:55:01.045Z,97.60
2022-10-17T23:57:31.367Z,97.70
2022-10-17T23:59:58.786Z,97.80
